Time;durP1;ratioP1;P1;durP2;ratioP2;P2;SDS_P1;SDS_P2;PMS_P1;PMS_P2;Temp;Humidity;BMP_temperature;BMP_pressure;BME280_temperature;BME280_humidity;BME280_pressure;Samples;Min_cycle;Max_cycle;Signal;HPM_P1;HPM_P2
2023/04/14 00:01:52;;;;;;;8.38;4.20;;;7.10;99.90;;;;;;5116210;28;20177;-58
2023/04/14 00:04:18;;;;;;;9.60;4.30;;;7.00;99.90;;;;;;5116083;28;20184;-58
2023/04/14 00:06:44;;;;;;;9.48;3.80;;;7.00;99.90;;;;;;5081191;28;20201;-58
2023/04/14 00:09:10;;;;;;;8.65;4.25;;;6.90;99.90;;;;;;5116172;28;20258;-58
2023/04/14 00:11:36;;;;;;;8.18;3.80;;;6.90;99.90;;;;;;5116096;28;20197;-58
2023/04/14 00:14:02;;;;;;;8.70;4.07;;;6.80;99.90;;;;;;5097837;28;20191;-58
2023/04/14 00:16:29;;;;;;;9.30;3.90;;;6.90;99.90;;;;;;5115829;28;20185;-58
2023/04/14 00:18:55;;;;;;;8.05;4.00;;;6.80;99.90;;;;;;5116116;28;20625;-58
2023/04/14 00:21:21;;;;;;;7.75;3.92;;;6.90;99.90;;;;;;5116005;28;20212;-58
2023/04/14 00:23:50;;;;;;;7.22;3.88;;;6.90;99.90;;;;;;5115918;28;20247;-58
2023/04/14 00:26:15;;;;;;;6.88;3.65;;;6.90;99.90;;;;;;5115879;28;20176;-58
2023/04/14 00:28:41;;;;;;;10.13;4.22;;;6.90;99.90;;;;;;5115726;28;20655;-58
2023/04/14 00:31:07;;;;;;;9.23;3.80;;;6.80;99.90;;;;;;5115550;28;20234;-58
2023/04/14 00:33:32;;;;;;;8.00;3.72;;;6.80;99.90;;;;;;5115572;28;20177;-57
2023/04/14 00:35:58;;;;;;;10.68;3.50;;;6.80;99.90;;;;;;5115531;28;20170;-58
2023/04/14 00:38:24;;;;;;;10.20;3.90;;;6.80;99.90;;;;;;5115682;28;20173;-58
2023/04/14 00:40:50;;;;;;;9.15;3.97;;;6.80;99.90;;;;;;5115492;28;20183;-58
2023/04/14 00:43:18;;;;;;;8.88;4.35;;;6.80;99.90;;;;;;5115453;28;20686;-58
2023/04/14 00:45:46;;;;;;;6.80;3.20;;;6.80;99.90;;;;;;5115221;28;20201;-57
2023/04/14 00:48:14;;;;;;;6.90;3.33;;;6.90;99.90;;;;;;5115461;28;20571;-58
2023/04/14 00:50:40;;;;;;;7.00;3.33;;;6.80;99.90;;;;;;5114394;28;20539;-58
2023/04/14 00:53:06;;;;;;;5.68;3.20;;;6.80;99.90;;;;;;5115179;28;20221;-57
2023/04/14 00:55:32;;;;;;;6.07;3.00;;;6.80;99.90;;;;;;5115231;28;20196;-57
2023/04/14 00:57:59;;;;;;;6.97;3.47;;;6.80;99.90;;;;;;5096891;28;20186;-58
2023/04/14 01:00:25;;;;;;;5.57;3.30;;;6.70;99.90;;;;;;5115037;28;20619;-58
2023/04/14 01:02:50;;;;;;;7.03;3.35;;;6.80;99.90;;;;;;5115401;28;20184;-58
2023/04/14 01:05:16;;;;;;;8.02;3.67;;;6.80;99.90;;;;;;5115142;28;20176;-57
2023/04/14 01:07:42;;;;;;;7.57;3.17;;;6.80;99.90;;;;;;5115328;28;20259;-58
2023/04/14 01:10:08;;;;;;;7.55;3.50;;;6.80;99.90;;;;;;5114933;28;20174;-58
2023/04/14 01:12:55;;;;;;;5.97;3.10;;;6.80;99.90;;;;;;5114672;28;20233;-58
2023/04/14 01:15:40;;;;;;;7.15;3.60;;;6.70;99.90;;;;;;5115041;28;20602;-58
2023/04/14 01:18:20;;;;;;;6.85;3.38;;;6.60;99.90;;;;;;5114653;28;20173;-57
2023/04/14 01:20:55;;;;;;;6.50;3.20;;;6.50;99.90;;;;;;5114796;28;20219;-58
2023/04/14 01:23:25;;;;;;;6.78;3.63;;;6.40;99.90;;;;;;5096288;28;20204;-58
2023/04/14 01:25:54;;;;;;;9.00;3.45;;;6.40;99.90;;;;;;5114828;28;20165;-57
2023/04/14 01:28:40;;;;;;;6.28;3.25;;;6.30;99.90;;;;;;5114569;28;20183;-58
2023/04/14 01:31:37;;;;;;;4.53;3.08;;;6.30;99.90;;;;;;5114536;28;20405;-58
2023/04/14 01:34:14;;;;;;;5.45;3.25;;;6.30;99.90;;;;;;5114601;28;20532;-57
2023/04/14 01:36:54;;;;;;;7.00;3.35;;;6.20;99.90;;;;;;5114427;28;20689;-58
2023/04/14 01:39:23;;;;;;;7.50;3.42;;;6.20;99.90;;;;;;5114503;28;20530;-57
2023/04/14 01:41:55;;;;;;;6.70;3.85;;;6.30;99.90;;;;;;5114295;28;20184;-58
2023/04/14 01:44:22;;;;;;;7.30;3.78;;;6.30;99.90;;;;;;5114576;28;20168;-57
2023/04/14 01:46:50;;;;;;;6.43;3.00;;;6.20;99.90;;;;;;5114203;28;20612;-57
2023/04/14 01:49:20;;;;;;;7.85;3.35;;;6.20;99.90;;;;;;5113976;28;20251;-58
2023/04/14 01:51:47;;;;;;;6.13;4.03;;;6.20;99.90;;;;;;5114107;28;20197;-57
2023/04/14 01:54:15;;;;;;;7.18;3.10;;;6.20;99.90;;;;;;5114068;28;20537;-57
2023/04/14 01:56:42;;;;;;;6.18;3.35;;;6.30;99.90;;;;;;5113914;28;20177;-58
2023/04/14 01:59:10;;;;;;;6.95;3.13;;;6.30;99.90;;;;;;5114102;28;20161;-58
2023/04/14 02:01:37;;;;;;;6.30;3.22;;;6.30;99.90;;;;;;5113928;28;20545;-57
2023/04/14 02:04:04;;;;;;;7.32;3.92;;;6.20;99.90;;;;;;5113861;28;20684;-58
2023/04/14 02:06:31;;;;;;;7.40;3.58;;;6.30;99.90;;;;;;5113854;28;20187;-58
2023/04/14 02:09:00;;;;;;;6.57;3.28;;;6.30;99.90;;;;;;5113922;28;20179;-57
2023/04/14 02:11:28;;;;;;;6.05;2.90;;;6.30;99.90;;;;;;5113833;28;20203;-58
2023/04/14 02:13:55;;;;;;;8.13;3.42;;;6.30;99.90;;;;;;5114238;28;20187;-58
2023/04/14 02:16:22;;;;;;;7.97;3.40;;;6.20;99.90;;;;;;5113873;28;20255;-59
2023/04/14 02:18:49;;;;;;;4.40;2.95;;;6.20;99.90;;;;;;5113821;28;20165;-58
2023/04/14 02:21:16;;;;;;;6.72;3.22;;;6.30;99.90;;;;;;5113816;28;20572;-58
2023/04/14 02:23:42;;;;;;;6.15;3.30;;;6.30;99.90;;;;;;5113596;28;20226;-58
2023/04/14 02:26:15;;;;;;;6.82;3.30;;;6.20;99.90;;;;;;5113619;28;20177;-57
2023/04/14 02:29:09;;;;;;;5.00;2.97;;;6.30;99.90;;;;;;5113708;28;20165;-57
2023/04/14 02:31:41;;;;;;;6.30;3.15;;;6.30;99.90;;;;;;5103999;28;20269;-57
2023/04/14 02:34:09;;;;;;;6.28;3.03;;;6.40;99.90;;;;;;5113512;28;20179;-57
2023/04/14 02:36:47;;;;;;;5.38;3.10;;;6.40;99.90;;;;;;5113741;28;20173;-57
2023/04/14 02:39:19;;;;;;;6.13;2.97;;;6.40;99.90;;;;;;5113734;28;20225;-58
2023/04/14 02:41:47;;;;;;;5.82;3.00;;;6.40;99.90;;;;;;5113651;28;20177;-58
2023/04/14 02:44:38;;;;;;;5.63;3.17;;;6.30;99.90;;;;;;5113448;28;20227;-57
2023/04/14 02:47:07;;;;;;;6.38;3.00;;;6.30;99.90;;;;;;5101595;28;20185;-58
2023/04/14 02:49:39;;;;;;;5.45;3.22;;;6.30;99.90;;;;;;5113793;28;20176;-57
2023/04/14 02:52:06;;;;;;;5.70;2.75;;;6.30;99.90;;;;;;5113447;28;20203;-57
2023/04/14 02:54:38;;;;;;;7.07;3.22;;;6.30;99.90;;;;;;5113382;28;20272;-58
2023/04/14 02:57:04;;;;;;;5.32;2.70;;;6.20;99.90;;;;;;5113327;28;20206;-57
2023/04/14 02:59:31;;;;;;;6.43;3.08;;;6.20;99.90;;;;;;5095448;28;20173;-58
2023/04/14 03:02:00;;;;;;;4.78;2.78;;;6.20;99.90;;;;;;5113475;28;20259;-57
2023/04/14 03:04:29;;;;;;;5.28;2.90;;;6.20;99.90;;;;;;5113464;28;20180;-57
2023/04/14 03:06:56;;;;;;;5.93;2.92;;;6.20;99.90;;;;;;5113325;28;20201;-58
2023/04/14 03:09:24;;;;;;;4.70;3.20;;;6.00;99.90;;;;;;5113175;28;20646;-57
2023/04/14 03:11:52;;;;;;;5.35;2.80;;;6.00;99.90;;;;;;5113004;28;20289;-58
2023/04/14 03:14:18;;;;;;;7.18;3.33;;;6.10;99.90;;;;;;5114087;28;20246;-58
2023/04/14 03:16:45;;;;;;;8.55;3.30;;;6.10;99.90;;;;;;5117262;28;20206;-58
2023/04/14 03:19:12;;;;;;;7.10;3.20;;;6.10;99.90;;;;;;5117165;28;20180;-58
2023/04/14 03:21:38;;;;;;;5.93;2.80;;;6.00;99.90;;;;;;5117071;28;20260;-58
2023/04/14 03:24:05;;;;;;;10.10;3.47;;;6.00;99.90;;;;;;5116979;28;20682;-57
2023/04/14 03:26:33;;;;;;;5.18;2.88;;;5.90;99.90;;;;;;5117367;28;20525;-57
2023/04/14 03:29:02;;;;;;;5.63;2.55;;;5.90;99.90;;;;;;5117093;28;20164;-57
2023/04/14 03:31:35;;;;;;;5.50;2.97;;;5.90;99.90;;;;;;5116732;28;20198;-57
2023/04/14 03:34:03;;;;;;;5.75;2.90;;;5.90;99.90;;;;;;5116908;28;20180;-57
2023/04/14 03:36:30;;;;;;;4.28;2.50;;;5.80;99.90;;;;;;5098467;28;20165;-58
2023/04/14 03:39:00;;;;;;;5.47;2.78;;;5.80;99.90;;;;;;5116602;28;20258;-58
2023/04/14 03:41:26;;;;;;;3.95;2.85;;;5.80;99.90;;;;;;5116855;28;20176;-57
2023/04/14 03:43:55;;;;;;;6.60;2.92;;;5.80;99.90;;;;;;5116674;28;20173;-58
2023/04/14 03:46:27;;;;;;;6.22;3.00;;;5.80;99.90;;;;;;5116568;28;20263;-58
2023/04/14 03:48:54;;;;;;;5.82;3.28;;;5.80;99.90;;;;;;5116766;28;20232;-57
2023/04/14 03:51:26;;;;;;;6.97;3.33;;;5.80;99.90;;;;;;5116343;28;20174;-58
2023/04/14 03:53:55;;;;;;;5.88;3.25;;;5.80;99.90;;;;;;5116620;27;20211;-58
2023/04/14 03:56:21;;;;;;;8.82;3.30;;;5.80;99.90;;;;;;5116550;28;20688;-58
2023/04/14 03:58:51;;;;;;;4.90;3.40;;;5.80;99.90;;;;;;5116448;28;20217;-57
2023/04/14 04:01:24;;;;;;;6.65;2.92;;;5.90;99.90;;;;;;5116313;28;20541;-58
2023/04/14 04:03:52;;;;;;;6.70;3.28;;;5.90;99.90;;;;;;5116205;28;20181;-58
2023/04/14 04:06:18;;;;;;;4.20;2.92;;;5.80;99.90;;;;;;5116388;28;20169;-57
2023/04/14 04:08:46;;;;;;;4.68;3.33;;;5.90;99.90;;;;;;5116358;28;20259;-58
2023/04/14 04:11:17;;;;;;;3.83;2.80;;;5.90;99.90;;;;;;5097837;28;20165;-58
2023/04/14 04:13:48;;;;;;;5.97;2.95;;;6.00;99.90;;;;;;5116219;28;20184;-58
2023/04/14 04:16:14;;;;;;;5.65;3.05;;;5.90;99.90;;;;;;5116050;28;20180;-57
2023/04/14 04:18:45;;;;;;;6.53;3.42;;;5.90;99.90;;;;;;5115859;28;20263;-58
2023/04/14 04:21:13;;;;;;;3.53;2.70;;;5.90;99.90;;;;;;5116031;28;20253;-58
2023/04/14 04:23:42;;;;;;;3.78;3.30;;;5.90;99.90;;;;;;5115934;28;20196;-58
2023/04/14 04:26:08;;;;;;;5.57;3.10;;;5.90;99.90;;;;;;5115671;28;20169;-58
2023/04/14 04:28:35;;;;;;;6.20;3.30;;;5.90;99.90;;;;;;5115734;28;20173;-58
2023/04/14 04:31:05;;;;;;;4.50;3.25;;;5.90;99.90;;;;;;5115555;28;20177;-58
2023/04/14 04:33:31;;;;;;;5.50;3.20;;;5.90;99.90;;;;;;5115963;28;20298;-57
2023/04/14 04:35:58;;;;;;;4.97;3.03;;;5.90;99.90;;;;;;5115566;28;20177;-58
2023/04/14 04:38:23;;;;;;;5.30;2.75;;;5.90;99.90;;;;;;5115709;28;20170;-58
2023/04/14 04:40:49;;;;;;;6.13;3.00;;;5.90;99.90;;;;;;5114292;28;20630;-58
2023/04/14 04:43:18;;;;;;;2.90;2.60;;;5.80;99.90;;;;;;5095889;28;20208;-58
2023/04/14 04:45:49;;;;;;;5.45;3.30;;;5.80;99.90;;;;;;5115214;28;20594;-58
2023/04/14 04:48:14;;;;;;;6.07;3.13;;;5.80;99.90;;;;;;5115151;28;20223;-58
2023/04/14 04:50:41;;;;;;;7.93;3.55;;;5.80;99.90;;;;;;5114898;28;20177;-58
2023/04/14 04:53:06;;;;;;;7.13;4.47;;;5.70;99.90;;;;;;5114877;28;20597;-57
2023/04/14 04:55:32;;;;;;;6.57;4.18;;;5.70;99.90;;;;;;5114981;28;20169;-58
2023/04/14 04:57:58;;;;;;;5.20;3.38;;;5.70;99.90;;;;;;5114861;28;20169;-58
2023/04/14 05:00:25;;;;;;;8.60;3.47;;;5.80;99.90;;;;;;5114840;28;20172;-58
2023/04/14 05:02:51;;;;;;;5.10;3.33;;;5.80;99.90;;;;;;5114902;28;20275;-58
2023/04/14 05:05:16;;;;;;;5.88;3.65;;;5.80;99.90;;;;;;5114669;28;20184;-58
2023/04/14 05:07:42;;;;;;;5.05;3.00;;;5.80;99.90;;;;;;5114825;28;20585;-58
2023/04/14 05:10:08;;;;;;;6.03;3.40;;;5.90;99.90;;;;;;5114516;28;20184;-58
2023/04/14 05:12:34;;;;;;;7.65;3.92;;;5.90;99.90;;;;;;5113563;28;20196;-59
2023/04/14 05:14:59;;;;;;;5.40;3.25;;;5.90;99.90;;;;;;5114436;28;20188;-58
2023/04/14 05:17:25;;;;;;;5.63;3.15;;;6.00;99.90;;;;;;5114608;28;20169;-58
2023/04/14 05:19:51;;;;;;;12.32;6.18;;;5.90;99.90;;;;;;5114264;28;20176;-58
2023/04/14 05:22:17;;;;;;;9.68;4.88;;;6.00;99.90;;;;;;5096398;28;20192;-58
2023/04/14 05:24:50;;;;;;;6.38;3.80;;;6.00;99.90;;;;;;5114531;28;20176;-58
2023/04/14 05:27:16;;;;;;;8.65;4.13;;;6.10;99.90;;;;;;5114621;28;20179;-58
2023/04/14 05:29:42;;;;;;;6.95;3.53;;;6.10;99.90;;;;;;5114497;28;20168;-58
2023/04/14 05:32:07;;;;;;;5.60;3.85;;;6.30;99.90;;;;;;5114510;28;20201;-58
2023/04/14 05:34:33;;;;;;;11.30;10.00;;;6.40;99.90;;;;;;5114408;28;20647;-58
2023/04/14 05:36:59;;;;;;;29.75;24.98;;;6.50;99.90;;;;;;5113905;28;20752;-58
2023/04/14 05:39:24;;;;;;;9.95;6.50;;;6.50;99.90;;;;;;5114452;28;20197;-58
2023/04/14 05:41:50;;;;;;;8.10;4.45;;;6.60;99.90;;;;;;5114254;28;20185;-58
2023/04/14 05:44:16;;;;;;;7.90;3.85;;;6.70;99.90;;;;;;5114599;28;20622;-58
2023/04/14 05:46:42;;;;;;;9.80;4.03;;;6.80;99.90;;;;;;5114420;28;20187;-58
2023/04/14 05:49:07;;;;;;;9.15;4.38;;;6.80;99.90;;;;;;5113985;28;20587;-58
2023/04/14 05:51:33;;;;;;;6.30;3.83;;;6.90;99.90;;;;;;5113324;28;20604;-57
2023/04/14 05:53:59;;;;;;;8.73;4.70;;;7.00;99.90;;;;;;5110673;28;20177;-58
2023/04/14 05:56:24;;;;;;;6.95;4.30;;;7.00;99.90;;;;;;5113562;28;20183;-58
2023/04/14 05:58:53;;;;;;;7.72;3.97;;;7.00;99.90;;;;;;5113674;28;20173;-57
2023/04/14 06:01:18;;;;;;;8.63;3.83;;;7.10;99.90;;;;;;5117904;27;20185;-57
2023/04/14 06:03:44;;;;;;;7.85;4.47;;;7.20;99.90;;;;;;5113424;28;20176;-57
2023/04/14 06:06:10;;;;;;;5.47;3.58;;;7.20;99.90;;;;;;5113665;28;20177;-57
2023/04/14 06:08:36;;;;;;;5.65;3.85;;;7.20;99.90;;;;;;5113810;28;20173;-57
2023/04/14 06:11:02;;;;;;;7.45;3.88;;;7.30;99.90;;;;;;5113703;28;20205;-57
2023/04/14 06:13:28;;;;;;;6.95;4.40;;;7.30;99.90;;;;;;5113581;28;20212;-57
2023/04/14 06:15:55;;;;;;;7.53;4.00;;;7.30;99.90;;;;;;5129992;27;20557;-57
2023/04/14 06:18:21;;;;;;;8.38;3.97;;;7.30;99.90;;;;;;5113754;28;20237;-57
2023/04/14 06:20:47;;;;;;;8.10;3.80;;;7.20;99.90;;;;;;5113743;28;20185;-57
2023/04/14 06:23:13;;;;;;;6.85;3.92;;;7.30;99.90;;;;;;5113662;28;20173;-57
2023/04/14 06:25:39;;;;;;;7.50;4.57;;;7.30;99.90;;;;;;5113387;28;20177;-57
2023/04/14 06:28:06;;;;;;;11.52;4.65;;;7.30;99.90;;;;;;5113854;28;20643;-57
2023/04/14 06:30:32;;;;;;;10.00;4.97;;;7.30;99.90;;;;;;5113797;28;20165;-58
2023/04/14 06:33:00;;;;;;;8.88;4.70;;;7.30;99.90;;;;;;5112617;28;20266;-58
2023/04/14 06:35:26;;;;;;;16.05;4.25;;;7.40;99.90;;;;;;5111684;28;20184;-58
2023/04/14 06:37:51;;;;;;;8.05;4.78;;;7.50;99.90;;;;;;5111675;28;20173;-58
2023/04/14 06:40:17;;;;;;;7.85;3.95;;;7.50;99.90;;;;;;5112817;28;20174;-58
2023/04/14 06:42:43;;;;;;;7.55;4.07;;;7.70;99.90;;;;;;5129539;27;20189;-59
2023/04/14 06:45:09;;;;;;;8.57;4.38;;;7.70;99.90;;;;;;5113560;28;20181;-58
2023/04/14 06:47:35;;;;;;;8.68;4.18;;;7.90;99.90;;;;;;5113342;28;20320;-58
2023/04/14 06:50:01;;;;;;;8.45;4.28;;;8.00;99.90;;;;;;5115737;28;20620;-57
2023/04/14 06:52:27;;;;;;;8.63;3.90;;;8.10;99.90;;;;;;5117370;28;20563;-58
2023/04/14 06:54:53;;;;;;;8.40;4.05;;;8.20;99.90;;;;;;5117522;28;20180;-58
2023/04/14 06:57:19;;;;;;;6.43;3.75;;;8.30;99.90;;;;;;5117679;28;20173;-61
2023/04/14 06:59:45;;;;;;;8.10;4.32;;;8.50;99.90;;;;;;5117611;28;20203;-57
2023/04/14 07:02:11;;;;;;;6.60;3.95;;;8.60;99.90;;;;;;5117539;28;20556;-57
2023/04/14 07:04:36;;;;;;;9.13;3.90;;;8.60;99.90;;;;;;5117261;28;20169;-59
2023/04/14 07:07:02;;;;;;;7.20;3.92;;;8.70;99.90;;;;;;5117284;28;20177;-59
2023/04/14 07:09:28;;;;;;;7.60;4.00;;;8.80;99.90;;;;;;5117159;28;20178;-59
2023/04/14 07:11:56;;;;;;;6.75;3.63;;;8.90;99.90;;;;;;5117320;28;20555;-57
2023/04/14 07:14:23;;;;;;;6.80;3.58;;;9.10;99.90;;;;;;5117330;28;20177;-57
2023/04/14 07:16:50;;;;;;;7.22;4.20;;;9.20;99.90;;;;;;5117274;28;20226;-57
2023/04/14 07:19:16;;;;;;;5.68;3.38;;;9.30;99.90;;;;;;5117123;28;20173;-58
2023/04/14 07:21:43;;;;;;;6.90;3.50;;;9.40;99.90;;;;;;5117022;28;20683;-59
2023/04/14 07:24:09;;;;;;;4.80;3.70;;;9.60;99.90;;;;;;5116941;28;20222;-57
2023/04/14 07:26:35;;;;;;;5.50;4.57;;;9.80;99.90;;;;;;5117140;28;20177;-58
2023/04/14 07:29:01;;;;;;;6.78;3.83;;;10.10;99.90;;;;;;5117091;28;20639;-59
2023/04/14 07:31:26;;;;;;;7.55;3.80;;;10.30;99.90;;;;;;5098711;28;20252;-59
2023/04/14 07:33:52;;;;;;;5.47;3.45;;;10.70;99.90;;;;;;5117164;28;20204;-59
2023/04/14 07:36:17;;;;;;;7.82;3.60;;;11.10;99.90;;;;;;5098631;28;20669;-57
2023/04/14 07:38:43;;;;;;;5.82;3.40;;;11.50;99.90;;;;;;5116707;28;20651;-59
2023/04/14 07:41:09;;;;;;;6.20;3.20;;;11.70;99.90;;;;;;5116937;28;20176;-58
2023/04/14 07:43:35;;;;;;;8.27;3.60;;;11.80;99.90;;;;;;5116799;28;20636;-58
2023/04/14 07:46:05;;;;;;;6.18;3.47;;;12.10;99.90;;;;;;5116721;28;20531;-58
2023/04/14 07:48:32;;;;;;;6.78;3.47;;;12.30;99.90;;;;;;5116600;28;20552;-59
2023/04/14 07:50:58;;;;;;;6.22;3.42;;;12.60;99.90;;;;;;5116598;28;20645;-59
2023/04/14 07:53:23;;;;;;;5.40;2.97;;;12.70;99.90;;;;;;5116340;28;20296;-58
2023/04/14 07:55:49;;;;;;;6.70;3.20;;;12.60;99.90;;;;;;5116348;28;20238;-58
2023/04/14 07:58:15;;;;;;;5.72;3.00;;;12.80;99.90;;;;;;5116554;28;20177;-58
2023/04/14 08:00:41;;;;;;;5.10;2.90;;;12.80;99.90;;;;;;5115817;28;20668;-58
2023/04/14 08:03:07;;;;;;;7.22;3.03;;;12.90;99.90;;;;;;5116274;28;20177;-58
2023/04/14 08:05:33;;;;;;;4.57;2.30;;;12.80;99.90;;;;;;5116191;28;20173;-59
2023/04/14 08:07:58;;;;;;;6.05;2.10;;;13.10;99.90;;;;;;5116341;28;20173;-59
2023/04/14 08:10:25;;;;;;;3.97;1.92;;;13.00;99.90;;;;;;5116271;28;20173;-59
2023/04/14 08:12:51;;;;;;;5.28;2.15;;;13.20;99.90;;;;;;5116071;28;20205;-59
2023/04/14 08:15:17;;;;;;;5.93;3.30;;;13.40;99.90;;;;;;5116085;28;20264;-59
2023/04/14 08:17:43;;;;;;;5.43;3.42;;;13.50;99.90;;;;;;5115987;28;20260;-59
2023/04/14 08:20:09;;;;;;;6.00;3.10;;;13.70;99.90;;;;;;5115859;28;20230;-59
2023/04/14 08:22:35;;;;;;;3.33;2.40;;;13.80;99.90;;;;;;5116119;28;20272;-59
2023/04/14 08:25:01;;;;;;;6.18;2.58;;;13.80;99.90;;;;;;5115671;28;20268;-59
2023/04/14 08:27:27;;;;;;;4.18;2.40;;;13.70;99.90;;;;;;5115952;28;20173;-58
2023/04/14 08:29:53;;;;;;;3.40;1.92;;;13.90;99.90;;;;;;5115829;28;20213;-58
2023/04/14 08:32:19;;;;;;;4.43;2.72;;;13.90;99.90;;;;;;5115608;28;20205;-59
2023/04/14 08:34:45;;;;;;;4.18;2.17;;;14.00;99.90;;;;;;5131471;27;20705;-58
2023/04/14 08:37:14;;;;;;;5.72;2.83;;;14.10;99.90;;;;;;5115454;28;20245;-58
2023/04/14 08:39:40;;;;;;;3.60;2.30;;;14.20;99.90;;;;;;5115762;28;20169;-57
2023/04/14 08:42:07;;;;;;;6.22;2.33;;;14.10;99.90;;;;;;5115660;28;20173;-59
2023/04/14 08:44:33;;;;;;;3.17;1.92;;;14.20;99.90;;;;;;5115547;28;20184;-59
2023/04/14 08:46:59;;;;;;;6.07;2.17;;;14.40;99.90;;;;;;5115449;28;20173;-57
2023/04/14 08:49:33;;;;;;;4.43;2.28;;;14.30;99.90;;;;;;5115198;28;20565;-61
2023/04/14 08:52:00;;;;;;;3.20;1.73;;;14.40;99.90;;;;;;5115349;28;20203;-57
2023/04/14 08:54:27;;;;;;;3.42;1.77;;;14.40;99.90;;;;;;5115525;28;20177;-57
2023/04/14 08:56:56;;;;;;;5.18;2.05;;;14.40;99.90;;;;;;5114844;28;20219;-57
2023/04/14 08:59:22;;;;;;;3.72;2.00;;;14.60;99.90;;;;;;5115108;28;20177;-57
2023/04/14 09:01:48;;;;;;;5.05;2.28;;;14.70;99.90;;;;;;5115087;28;20204;-57
2023/04/14 09:04:15;;;;;;;3.35;1.65;;;14.60;99.90;;;;;;5114987;28;20179;-58
2023/04/14 09:06:41;;;;;;;4.30;1.75;;;14.70;99.90;;;;;;5115218;28;20208;-57
2023/04/14 09:09:07;;;;;;;3.38;1.50;;;14.80;99.90;;;;;;5115110;28;20205;-57
2023/04/14 09:11:33;;;;;;;5.47;2.90;;;15.10;99.90;;;;;;5114238;28;20197;-59
2023/04/14 09:14:00;;;;;;;3.50;1.83;;;15.20;99.90;;;;;;5114685;28;20173;-57
2023/04/14 09:16:27;;;;;;;2.25;1.50;;;15.40;99.90;;;;;;5114859;28;20178;-57
2023/04/14 09:18:53;;;;;;;3.88;1.80;;;15.30;99.90;;;;;;5114969;28;20173;-57
2023/04/14 09:21:19;;;;;;;3.63;2.50;;;15.20;99.90;;;;;;5114844;28;20174;-57
2023/04/14 09:23:46;;;;;;;2.92;1.63;;;15.20;99.90;;;;;;5114877;28;20165;-58
2023/04/14 09:26:12;;;;;;;3.15;1.50;;;15.10;99.90;;;;;;5114704;28;20180;-57
2023/04/14 09:28:38;;;;;;;5.00;1.45;;;15.20;99.90;;;;;;5114655;28;20173;-57
2023/04/14 09:31:04;;;;;;;2.40;1.48;;;15.20;99.90;;;;;;5114582;28;20182;-57
2023/04/14 09:33:30;;;;;;;2.78;1.50;;;15.10;99.90;;;;;;5114700;28;20201;-60
2023/04/14 09:35:56;;;;;;;2.42;1.50;;;15.10;99.90;;;;;;5096451;28;20504;-57
2023/04/14 09:38:51;;;;;;;4.38;1.70;;;15.20;99.90;;;;;;5114594;28;20184;-57
2023/04/14 09:41:20;;;;;;;3.47;1.48;;;15.00;99.90;;;;;;5096916;28;20177;-57
2023/04/14 09:43:46;;;;;;;3.95;1.70;;;15.00;99.90;;;;;;5114134;28;20177;-58
2023/04/14 09:46:11;;;;;;;5.28;1.55;;;15.20;99.90;;;;;;5114363;28;20173;-57
2023/04/14 09:48:51;;;;;;;4.60;1.33;;;15.30;99.90;;;;;;5114264;28;20259;-59
2023/04/14 09:51:21;;;;;;;4.43;1.52;;;15.40;99.90;;;;;;5114133;28;20173;-59
2023/04/14 09:53:47;;;;;;;3.05;1.60;;;15.50;98.80;;;;;;5114160;28;20234;-59
2023/04/14 09:56:12;;;;;;;5.13;2.17;;;15.40;98.00;;;;;;5114025;28;20712;-58
2023/04/14 09:58:40;;;;;;;3.42;1.65;;;15.50;99.20;;;;;;5114207;28;20207;-58
2023/04/14 10:01:14;;;;;;;3.92;1.40;;;15.70;99.90;;;;;;5114198;28;20215;-59
2023/04/14 10:03:45;;;;;;;3.15;1.38;;;15.80;99.90;;;;;;5114080;28;20168;-60
2023/04/14 10:06:18;;;;;;;3.15;1.58;;;15.90;99.50;;;;;;5114009;28;20169;-57
2023/04/14 10:08:47;;;;;;;2.90;1.70;;;16.00;97.50;;;;;;5113793;28;20169;-57
2023/04/14 10:11:26;;;;;;;4.15;1.50;;;15.80;97.70;;;;;;5114034;28;20704;-59
2023/04/14 10:13:57;;;;;;;3.53;1.67;;;15.90;98.70;;;;;;5114066;28;20191;-59
2023/04/14 10:16:24;;;;;;;2.33;1.25;;;15.80;98.00;;;;;;5113315;28;20166;-57
2023/04/14 10:18:51;;;;;;;3.65;1.40;;;15.80;98.90;;;;;;5113205;28;20181;-57
2023/04/14 10:21:20;;;;;;;1.73;1.10;;;15.80;99.60;;;;;;5113163;28;20204;-57
2023/04/14 10:23:46;;;;;;;4.13;1.77;;;15.80;99.80;;;;;;5113150;28;20226;-57
2023/04/14 10:26:13;;;;;;;3.13;1.40;;;15.80;99.80;;;;;;5113758;28;20177;-57
2023/04/14 10:28:41;;;;;;;3.42;1.60;;;16.00;98.60;;;;;;5113683;28;20632;-59
2023/04/14 10:31:31;;;;;;;2.67;1.42;;;16.20;99.10;;;;;;5113532;28;20280;-59
2023/04/14 10:33:57;;;;;;;3.88;1.35;;;16.40;98.70;;;;;;5112603;28;20707;-59
2023/04/14 10:36:24;;;;;;;2.55;1.30;;;16.30;97.90;;;;;;5113692;28;20181;-58
2023/04/14 10:39:00;;;;;;;5.18;1.60;;;16.20;98.20;;;;;;5094882;28;20200;-59
2023/04/14 10:41:26;;;;;;;3.53;1.80;;;16.10;97.00;;;;;;5110558;28;20620;-59
2023/04/14 10:43:52;;;;;;;4.32;1.92;;;16.30;98.10;;;;;;5112003;28;20176;-57
2023/04/14 10:46:18;;;;;;;4.03;1.67;;;16.40;97.50;;;;;;5113380;28;20256;-57
2023/04/14 10:48:47;;;;;;;2.00;1.20;;;16.70;98.50;;;;;;5113499;28;20698;-57
2023/04/14 10:51:16;;;;;;;2.88;1.30;;;17.00;97.20;;;;;;5113608;28;20168;-57
2023/04/14 10:53:49;;;;;;;3.00;1.30;;;17.00;96.80;;;;;;5113632;28;20233;-57
2023/04/14 10:56:14;;;;;;;3.95;1.45;;;17.20;95.90;;;;;;5113320;28;20218;-57
2023/04/14 10:58:52;;;;;;;4.18;1.50;;;17.30;95.00;;;;;;5113478;28;20178;-57
2023/04/14 11:01:23;;;;;;;1.58;1.10;;;17.30;94.70;;;;;;5113573;28;20165;-58
2023/04/14 11:03:49;;;;;;;3.22;1.40;;;17.30;94.10;;;;;;5113554;28;20170;-57
2023/04/14 11:06:46;;;;;;;5.43;1.60;;;17.30;94.30;;;;;;5113319;28;20246;-57
2023/04/14 11:09:30;;;;;;;2.97;1.30;;;17.10;95.10;;;;;;5113095;28;20225;-57
2023/04/14 11:11:58;;;;;;;2.47;1.17;;;16.80;95.90;;;;;;5113324;28;20192;-57
2023/04/14 11:14:32;;;;;;;4.28;1.50;;;16.40;97.40;;;;;;5113358;28;20177;-58
2023/04/14 11:17:03;;;;;;;3.63;1.52;;;16.50;98.10;;;;;;5113297;28;20197;-57
2023/04/14 11:19:29;;;;;;;3.08;1.33;;;16.90;97.10;;;;;;5113220;28;20200;-57
2023/04/14 11:21:56;;;;;;;4.57;1.35;;;16.80;95.30;;;;;;5113016;28;20190;-56
2023/04/14 11:24:23;;;;;;;3.30;1.27;;;16.40;95.90;;;;;;5113160;28;20182;-59
2023/04/14 11:26:54;;;;;;;3.22;1.40;;;16.30;96.80;;;;;;5113017;28;20173;-59
2023/04/14 11:29:20;;;;;;;4.32;1.30;;;16.60;97.20;;;;;;5113372;28;20177;-59
2023/04/14 11:31:46;;;;;;;4.85;1.30;;;16.60;95.10;;;;;;5113074;28;20291;-59
2023/04/14 11:34:11;;;;;;;3.53;1.20;;;16.30;95.60;;;;;;5112978;28;20253;-58
2023/04/14 11:36:38;;;;;;;3.00;1.23;;;16.20;96.90;;;;;;5116216;28;20173;-59
2023/04/14 11:39:06;;;;;;;2.35;1.05;;;16.20;97.00;;;;;;5116891;28;20174;-58
2023/04/14 11:41:32;;;;;;;3.13;1.25;;;16.10;97.20;;;;;;5116861;28;20165;-58
2023/04/14 11:43:58;;;;;;;4.03;1.20;;;16.00;97.30;;;;;;5116687;28;20176;-58
2023/04/14 11:46:24;;;;;;;4.10;1.48;;;16.20;98.00;;;;;;5116793;28;20192;-58
2023/04/14 11:48:54;;;;;;;4.70;1.75;;;16.50;97.60;;;;;;5116781;28;20675;-59
2023/04/14 11:51:26;;;;;;;2.70;1.27;;;16.50;96.10;;;;;;5116594;28;20173;-58
2023/04/14 11:53:54;;;;;;;4.35;1.42;;;16.50;95.80;;;;;;5117198;28;20351;-58
2023/04/14 11:56:20;;;;;;;3.58;1.40;;;16.60;96.00;;;;;;5116753;28;20623;-57
2023/04/14 11:58:46;;;;;;;3.25;1.27;;;16.60;96.20;;;;;;5098185;28;20188;-58
2023/04/14 12:01:13;;;;;;;3.25;1.27;;;16.90;96.00;;;;;;5116435;28;20173;-58
2023/04/14 12:03:40;;;;;;;3.40;1.15;;;17.10;96.10;;;;;;5116213;28;20181;-58
2023/04/14 12:06:06;;;;;;;3.88;1.35;;;17.20;94.40;;;;;;5116483;28;20230;-58
2023/04/14 12:08:32;;;;;;;3.45;0.90;;;17.10;94.90;;;;;;5116410;28;20177;-58
2023/04/14 12:11:12;;;;;;;2.70;0.80;;;16.70;94.10;;;;;;5116229;28;20635;-58
2023/04/14 12:13:45;;;;;;;2.20;0.90;;;16.60;94.20;;;;;;5116098;28;20197;-58
2023/04/14 12:16:12;;;;;;;4.03;1.05;;;16.60;94.90;;;;;;5115989;28;20589;-58
2023/04/14 12:18:38;;;;;;;2.70;1.00;;;16.70;96.00;;;;;;5116199;28;20165;-58
2023/04/14 12:21:05;;;;;;;2.03;1.00;;;16.40;95.50;;;;;;5116205;28;20180;-58
2023/04/14 12:23:35;;;;;;;2.97;1.02;;;16.20;95.10;;;;;;5116031;28;20286;-58
2023/04/14 12:26:01;;;;;;;2.58;1.23;;;16.20;95.60;;;;;;5115885;28;20205;-58
2023/04/14 12:28:28;;;;;;;4.85;1.60;;;16.50;95.60;;;;;;5115841;28;20578;-58
2023/04/14 12:31:01;;;;;;;2.15;1.00;;;16.60;95.10;;;;;;5115933;28;20212;-58
2023/04/14 12:33:27;;;;;;;2.45;1.08;;;16.90;95.20;;;;;;5115847;28;20205;-57
2023/04/14 12:35:59;;;;;;;1.98;1.10;;;16.80;94.90;;;;;;5115791;28;20655;-58
2023/04/14 12:38:29;;;;;;;2.80;1.20;;;16.90;94.20;;;;;;5115710;28;20173;-58
2023/04/14 12:40:55;;;;;;;1.42;0.90;;;17.00;96.60;;;;;;5115538;28;20177;-58
2023/04/14 12:43:47;;;;;;;4.13;1.00;;;17.20;94.90;;;;;;5115422;28;20189;-58
2023/04/14 12:46:27;;;;;;;3.60;0.90;;;17.20;94.10;;;;;;5110840;28;20192;-59
2023/04/14 12:48:53;;;;;;;2.85;0.80;;;17.30;93.20;;;;;;5115692;28;20247;-59
2023/04/14 12:51:19;;;;;;;2.42;0.98;;;17.50;93.70;;;;;;5115279;28;20184;-58
2023/04/14 12:53:47;;;;;;;2.60;1.08;;;17.50;92.80;;;;;;5115430;28;20209;-57
2023/04/14 12:56:15;;;;;;;2.05;1.08;;;17.60;94.50;;;;;;5115107;28;20184;-59
2023/04/14 12:58:47;;;;;;;2.20;0.75;;;17.60;93.90;;;;;;5115305;28;20196;-59